Flight Track Log - Related Links

Times and Time Zones

All times are in EDT time to prevent confusion due to time zone crossing. See the DAL1562 flight status page for this flight to view local times or setup timezone preferences in your user account.

Time Position Orientation Groundspeed Altitude Reporting Facility
EDT Latitude Longitude Course Direction KTS km/h feet Rate Location/Type
Mon 16:43:56 39.8600 -75.2817 263° West 144 267 1.200  Level FAA TRACON SMA TRACON (SMA)
Mon 16:44:17 39.8581 -75.3022 263° West 180 333 1.600 1.610 Climbing FAA TRACON SMA TRACON (SMA)
Mon 16:44:37 39.8542 -75.3294 259° West 232 430 2.300 2.615 Climbing FAA TRACON SMA TRACON (SMA)
Mon 16:44:56 39.8492 -75.3619 259° West 253 468 3.300 3.538 Climbing FAA TRACON SMA TRACON (SMA)
Mon 16:45:16 39.8494 -75.3906 271° West 248 459 4.600 3.600 Climbing FAA TRACON SMA TRACON (SMA)
Mon 16:45:36 39.8558 -75.4186 287° West 255 472 5.700 3.300 Climbing FAA TRACON SMA TRACON (SMA)
Mon 16:45:56 39.8633 -75.4464 289° West 262 486 6.800 3.900 Climbing FAA TRACON SMA TRACON (SMA)
Mon 16:46:16 39.8722 -75.4806 289° West 258 478 8.300 3.600 Climbing FAA TRACON SMA TRACON (SMA)
Mon 16:46:36 39.8792 -75.5067 289° West 261 483 9.200 3.000 Climbing FAA TRACON SMA TRACON (SMA)
Mon 16:46:56 39.8869 -75.5367 289° West 262 486 10.300 2.550 Climbing FAA TRACON SMA TRACON (SMA)
Mon 16:47:16 39.8947 -75.5744 285° West 286 529 10.900 1.800 Climbing FAA TRACON SMA TRACON (SMA)
Mon 16:47:36 39.9022 -75.6061 287° West 300 555 11.500 1.650 Climbing FAA TRACON SMA TRACON (SMA)
Mon 16:47:56 39.9111 -75.6406 289° West 320 592 12.000 750 Climbing FAA TRACON SMA TRACON (SMA)
Mon 16:48:16 39.9183 -75.6875 281° West 352 652 12.000  Level FAA TRACON SMA TRACON (SMA)
Mon 16:48:36 39.9186 -75.7253 271° West 352 652 12.000 300 Level FAA TRACON SMA TRACON (SMA)
Mon 16:48:56 39.9183 -75.7664 270° West 353 653 12.200 1.500 Climbing FAA TRACON SMA TRACON (SMA)
Mon 16:49:16 39.9167 -75.8161 268° West 355 658 13.000 2.250 Climbing FAA TRACON SMA TRACON (SMA)
Mon 16:49:36 39.9153 -75.8556 267° West 356 660 13.700 1.950 Climbing FAA TRACON SMA TRACON (SMA)
Mon 16:49:56 39.9139 -75.8958 267° West 361 668 14.300 2.250 Climbing FAA TRACON SMA TRACON (SMA)
Mon 16:50:16 39.9128 -75.9458 268° West 366 678 15.200 2.250 Climbing FAA TRACON SMA TRACON (SMA)
Mon 16:50:36 39.9114 -75.9894 268° West 372 689 15.800 2.100 Climbing FAA TRACON SMA TRACON (SMA)
Mon 16:50:56 39.9108 -76.0319 269° West 379 702 16.600 2.550 Climbing FAA TRACON SMA TRACON (SMA)
Mon 16:51:16 39.9094 -76.0856 268° West 384 711 17.500 2.100 Climbing FAA TRACON SMA TRACON (SMA)
Mon 16:51:36 39.9083 -76.1292 268° West 388 719 18.000 1.704 Climbing FAA TRACON SMA TRACON (SMA)
Mon 16:54:05 39.9231 -76.4850 273° West 417 772 22.300 1.629 Climbing New York Center
Mon 16:55:06 39.9344 -76.6350 276° West 417 772 23.700 1.686 Climbing New York Center
Mon 16:56:06 39.9497 -76.7881 277° West 428 793 25.700 2.033 Climbing New York Center
Mon 16:57:07 39.9606 -76.9378 275° West 428 793 27.800 1.169 Climbing New York Center
Mon 16:58:04 39.9739 -77.0828 277° West 423 784 28.000 103 Climbing New York Center
Mon 16:59:04 39.9900 -77.2467 277° West 418 774 28.000  Level New York Center
Mon 17:01:08 40.0164 -77.5497 277° West 408 756 28.000  Level Cleveland Center
Mon 17:02:08 40.0283 -77.6956 276° West 402 745 28.000  Level Cleveland Center
Mon 17:03:08 40.0406 -77.8442 276° West 402 745 28.000  Level Cleveland Center
Mon 17:04:08 40.0519 -77.9739 277° West 402 745 28.000  Level Cleveland Center
Mon 17:05:08 40.0614 -78.1172 275° West 402 745 28.000  Level Cleveland Center
Mon 17:06:08 40.0811 -78.2603 280° West 402 745 28.000  Level Cleveland Center
Mon 17:07:08 40.1150 -78.3978 288° West 402 745 28.000  Level Cleveland Center
Mon 17:08:08 40.1508 -78.5350 289° West 402 745 28.000  Level Cleveland Center
Mon 17:09:08 40.1825 -78.6728 287° West 402 745 28.000  Level Cleveland Center
Mon 17:10:08 40.2158 -78.8078 288° West 397 735 28.000  Level Cleveland Center
Mon 17:11:08 40.2492 -78.9456 288° West 397 735 28.000  Level Cleveland Center
Mon 17:12:08 40.2825 -79.0836 288° West 397 735 28.000  Level Cleveland Center
Mon 17:13:08 40.3175 -79.2217 288° West 397 735 28.000  Level Cleveland Center
Mon 17:14:08 40.3547 -79.3706 288° West 397 735 28.000  Level Cleveland Center
Mon 17:15:08 40.3872 -79.5092 287° West 397 735 28.000  Level Cleveland Center
Mon 17:16:08 40.4219 -79.6503 288° West 397 735 28.000  Level Cleveland Center
Mon 17:17:08 40.4542 -79.7864 287° West 397 735 28.000  Level Cleveland Center
Mon 17:18:08 40.4842 -79.9225 286° West 397 735 28.000  Level Cleveland Center
Mon 17:19:08 40.5142 -80.0450 288° West 397 735 28.000  Level Cleveland Center
Mon 17:20:08 40.5439 -80.1814 286° West 397 735 28.000  Level Cleveland Center
Mon 17:21:08 40.5775 -80.3344 286° West 397 735 28.000  Level Cleveland Center
Mon 17:22:08 40.6111 -80.4736 288° West 397 735 28.000  Level Cleveland Center
Mon 17:23:08 40.6425 -80.6106 287° West 397 735 28.000  Level Cleveland Center
Mon 17:24:08 40.6736 -80.7308 289° West 397 735 28.000  Level Cleveland Center
Mon 17:25:08 40.7319 -80.8544 302° West 391 724 28.000  Level Cleveland Center
Mon 17:26:08 40.7919 -80.9753 303° West 391 724 28.000  Level Cleveland Center
Mon 17:27:08 40.8478 -81.1019 300° West 399 739 28.000  Level Cleveland Center
Mon 17:28:08 40.9056 -81.2206 303° West 399 739 28.000  Level Cleveland Center
Mon 17:29:08 40.9653 -81.3392 304° West 393 727 28.000  Level Cleveland Center
Mon 17:30:08 41.0289 -81.4750 302° West 388 719 28.000  Level Cleveland Center
Mon 17:31:08 41.0842 -81.5886 303° West 388 719 28.000  Level Cleveland Center
Mon 17:32:08 41.1353 -81.6886 304° West 377 698 28.000 -600 Level Cleveland Center
Mon 17:33:08 41.1883 -81.8000 302° West 365 676 26.800 -1.300 Descending Cleveland Center
Mon 17:34:08 41.2414 -81.9114 302° West 365 676 25.400 -1.300 Descending Cleveland Center
Mon 17:35:08 41.2922 -82.0203 302° West 365 676 24.200 -700 Descending Cleveland Center
Mon 17:36:08 41.3428 -82.1347 301° West 365 676 24.000 -1.300 Descending Cleveland Center
Mon 17:37:08 41.4039 -82.2414 307° West 365 676 21.600 -2.100 Descending Cleveland Center
Mon 17:38:08 41.4689 -82.3483 309° West 372 689 19.800 -1.723 Descending Cleveland Center
Mon 17:38:49 41.5136 -82.4244 308° West 371 687 18.700 -1.672 Descending Cleveland Center
Mon 17:39:09 41.5297 -82.4525 307° West 367 679 18.100 -2.459 Descending Cleveland Center
Mon 17:39:50 41.5828 -82.5347 311° West 352 652 16.200 -2.339 Descending Cleveland Center
Mon 17:40:08 41.5967 -82.5628 304° West 362 671 15.800 -2.182 Descending Cleveland Center
Mon 17:40:45 41.6333 -82.6222 310° West 336 623 14.200 -2.700 Descending Cleveland Center
Mon 17:41:08 41.6533 -82.6592 306° West 345 639 13.100 -1.970 Descending Cleveland Center
Mon 17:41:52 41.6958 -82.7300 309° West 325 602 12.000 -1.082 Descending Cleveland Center
Mon 17:42:09 41.7081 -82.7528 306° West 334 618 12.000  Level Cleveland Center
Mon 17:42:41 41.7467 -82.8069 314° West 326 604 12.000  Level Cleveland Center
Mon 17:43:08 41.7731 -82.8383 318° Northwest 329 610 12.000  Level Cleveland Center
Mon 17:43:54 41.8281 -82.9017 319° Northwest 328 607 12.000  Level Cleveland Center
Mon 17:44:43 41.8831 -82.9706 317° Northwest 331 613 12.000  Level Cleveland Center
Mon 17:45:09 41.9094 -83.0022 318° Northwest 323 599 12.000  Level Cleveland Center
Mon 17:45:44 41.9519 -83.0542 318° Northwest 324 600 12.000  Level Cleveland Center
Mon 17:46:08 41.9764 -83.0831 319° Northwest 323 599 12.000  Level Cleveland Center
Mon 17:46:45 42.0192 -83.1322 320° Northwest 323 599 12.000  Level Cleveland Center
Mon 17:47:08 42.0436 -83.1639 316° Northwest 323 599 12.000  Level Cleveland Center
Mon 17:47:52 42.0903 -83.2161 320° Northwest 270 501 12.000  Level Cleveland Center
Mon 17:48:08 42.0986 -83.2167 357° North 312 578 12.000 -885 Level Cleveland Center
Mon 17:48:53 42.1631 -83.2247 355° North 245 454 11.100 -1.132 Descending Cleveland Center
Mon 17:49:54 42.2242 -83.1908 22° Northeast 257 476 10.000 -1.279 Descending Cleveland Center
Mon 17:50:55 42.2858 -83.1344 34° Northeast 255 472 8.500 -1.279 Descending Cleveland Center
Mon 17:51:56 42.3453 -83.0864 31° Northeast 253 468 7.400 -1.230 Descending Cleveland Center
Mon 17:52:57 42.4064 -83.0606 17° North 204 378 6.000 -689 Descending Cleveland Center
Mon 17:53:58 42.4450 -83.1072 318° Northwest 191 354 6.000 -492 Level Cleveland Center
Mon 17:54:59 42.4439 -83.1522 268° West 150 278 5.000 -492 Descending Cleveland Center
Mon 17:56:00 42.4119 -83.1903 221° Southwest 154 285 5.000 -443 Level Cleveland Center
Mon 17:57:01 42.3758 -83.2197 211° Southwest 153 283 4.100 -885 Descending Cleveland Center

Login

Don't have an account? Register now (free) for customized features, flight alerts, and more!